Flight Track Log - Related Links

Times and Time Zones

All times are in EST time to prevent confusion due to time zone crossing. See the OPT332 flight status page for this flight to view local times or setup timezone preferences in your user account.

Time Position Orientation Groundspeed Altitude Reporting Facility
EST Latitude Longitude Course Direction KTS MPH feet Rate Location/Type
Sat 08:40:40 AM 30.1835 -97.6554 168° South 150 173 1,400  Level FlightAware ADS-B
Sat 08:40:44 AM 30.1809 -97.6540 155° Southeast 156 180 1,700 3,429 Climbing FlightAware ADS-B
Sat 08:40:54 AM 30.1738 -97.6498 153° Southeast 173 199 2,200 3,360 Climbing FlightAware ADS-B
Sat 08:41:09 AM 30.1624 -97.6422 150° Southeast 189 217 3,100 4,065 Climbing FlightAware ADS-B
Sat 08:41:25 AM 30.1501 -97.6340 150° Southeast 202 232 4,300 4,650 Climbing FlightAware ADS-B
Sat 08:41:49 AM 30.1301 -97.6202 149° Southeast 205 236 6,200 4,714 Climbing FlightAware ADS-B
Sat 08:41:53 AM 30.1274 -97.6172 136° Southeast 210 242 6,500 3,818 Climbing FlightAware ADS-B
Sat 08:42:11 AM 30.1216 -97.5978 109° East 231 266 7,600 3,643 Climbing FlightAware ADS-B
Sat 08:42:21 AM 30.1245 -97.5857 75° East 244 281 8,200 3,692 Climbing FlightAware ADS-B
Sat 08:42:24 AM 30.1267 -97.5812 61° Northeast 248 285 8,400 3,231 Climbing FlightAware ADS-B
Sat 08:42:34 AM 30.1332 -97.5695 57° Northeast 264 304 8,900 3,000 Climbing FlightAware ADS-B
Sat 08:42:52 AM 30.1440 -97.5460 62° Northeast 280 322 9,800 3,300 Climbing FlightAware ADS-B
Sat 08:43:14 AM 30.1567 -97.5162 64° Northeast 292 336 11,100 1,463 Climbing FlightAware ADS-B
Sat 08:44:14 AM 30.1991 -97.4212 63° Northeast 355 409 11,800 1,370 Climbing FlightAware ADS-B
Sat 08:44:46 AM 30.2230 -97.3683 62° Northeast 347 399 13,200 2,857 Climbing FlightAware ADS-B
Sat 08:45:17 AM 30.2465 -97.3161 62° Northeast 350 403 14,800 3,000 Climbing FlightAware ADS-B
Sat 08:45:48 AM 30.2696 -97.2648 62° Northeast 359 413 16,300 1,905 Climbing FlightAware ADS-B
Sat 08:46:20 AM 30.2944 -97.2096 62° Northeast 366 421 16,800 316 Climbing FlightAware ADS-B
Sat 08:47:23 AM 30.2999 -97.0909 87° East 368 423 16,800  Level FlightAware ADS-B
Sat 08:47:27 AM 30.2993 -97.0850 97° East 352 405 16,800  Level FlightAware ADS-B
Sat 08:47:57 AM 30.2936 -97.0275 97° East 352 405 16,800  Level FlightAware ADS-B
Sat 08:48:27 AM 30.2879 -96.9711 97° East 352 405 16,800  Level FlightAware ADS-B
Sat 08:48:58 AM 30.2819 -96.9138 97° East 352 405 16,800  Level FlightAware ADS-B
Sat 08:49:31 AM 30.2756 -96.8525 97° East 353 406 16,800  Level FlightAware ADS-B
Sat 08:50:01 AM 30.2696 -96.7955 97° East 353 406 16,800  Level FlightAware ADS-B
Sat 08:50:32 AM 30.2636 -96.7383 97° East 353 406 16,800  Level FlightAware ADS-B
Sat 08:51:02 AM 30.2576 -96.6820 97° East 353 406 16,800  Level FlightAware ADS-B
Sat 08:51:33 AM 30.2513 -96.6234 97° East 352 405 16,800 -97 Level FlightAware ADS-B
Sat 08:52:04 AM 30.2451 -96.5658 97° East 351 404 16,700 -1,065 Descending FlightAware ADS-B
Sat 08:52:35 AM 30.2390 -96.5084 97° East 346 398 15,700 -1,846 Descending FlightAware ADS-B
Sat 08:53:09 AM 30.2323 -96.4471 97° East 341 392 14,700 -1,754 Descending FlightAware ADS-B
Sat 08:53:40 AM 30.2263 -96.3915 97° East 345 397 13,800 -1,869 Descending FlightAware ADS-B
Sat 08:54:10 AM 30.2201 -96.3350 97° East 354 407 12,800 -1,900 Descending FlightAware ADS-B
Sat 08:54:40 AM 30.2138 -96.2779 97° East 358 412 11,900 -1,784 Descending FlightAware ADS-B
Sat 08:54:47 AM 30.2119 -96.2652 100° East 357 411 11,700 -2,143 Descending FlightAware ADS-B
Sat 08:54:54 AM 30.2086 -96.2521 106° East 354 407 11,400 -2,182 Descending FlightAware ADS-B
Sat 08:54:58 AM 30.2063 -96.2455 112° Southeast 352 405 11,300 -1,800 Descending FlightAware ADS-B
Sat 08:55:04 AM 30.2019 -96.2348 115° Southeast 348 400 11,100 -1,636 Descending FlightAware ADS-B
Sat 08:55:09 AM 30.1977 -96.2267 121° Southeast 346 398 11,000 -1,091 Descending FlightAware ADS-B
Sat 08:55:15 AM 30.1924 -96.2179 125° Southeast 341 392 10,900 -923 Descending FlightAware ADS-B
Sat 08:55:22 AM 30.1853 -96.2081 130° Southeast 335 386 10,800 -462 Descending FlightAware ADS-B
Sat 08:55:28 AM 30.1795 -96.2011 134° Southeast 330 380 10,800  Level FlightAware ADS-B
Sat 08:55:36 AM 30.1699 -96.1915 139° Southeast 321 369 10,800  Level FlightAware ADS-B
Sat 08:55:44 AM 30.1599 -96.1834 145° Southeast 319 367 10,800  Level FlightAware ADS-B
Sat 08:55:53 AM 30.1491 -96.1764 151° Southeast 321 369 10,800  Level FlightAware ADS-B
Sat 08:56:03 AM 30.1350 -96.1690 156° South 326 375 10,800  Level FlightAware ADS-B
Sat 08:56:07 AM 30.1289 -96.1653 152° Southeast 329 379 10,800  Level FlightAware ADS-B
Sat 08:56:12 AM 30.1235 -96.1609 145° Southeast 334 384 10,800  Level FlightAware ADS-B
Sat 08:56:17 AM 30.1170 -96.1542 138° Southeast 338 389 10,800  Level FlightAware ADS-B
Sat 08:56:31 AM 30.1013 -96.1362 135° Southeast 343 395 10,800  Level FlightAware ADS-B
Sat 08:57:01 AM 30.0657 -96.0981 137° Southeast 350 403 10,800 -387 Level FlightAware ADS-B
Sat 08:57:33 AM 30.0281 -96.0586 138° Southeast 348 400 10,400 -906 Descending FlightAware ADS-B
Sat 08:57:54 AM 30.0022 -96.0314 138° Southeast 345 397 10,000 -1,000 Descending FlightAware ADS-B
Sat 08:58:09 AM 29.9845 -96.0129 138° Southeast 343 395 9,800 -387 Descending FlightAware ADS-B
Sat 08:58:25 AM 29.9664 -95.9939 138° Southeast 342 394 9,800  Level FlightAware ADS-B
Sat 08:58:40 AM 29.9485 -95.9752 138° Southeast 333 383 9,800 -207 Level FlightAware ADS-B
Sat 08:58:54 AM 29.9338 -95.9598 138° Southeast 304 350 9,700 -1,034 Descending FlightAware ADS-B
Sat 08:59:09 AM 29.9186 -95.9438 138° Southeast 289 333 9,300 -1,800 Descending FlightAware ADS-B
Sat 08:59:24 AM 29.9036 -95.9280 138° Southeast 285 328 8,800 -1,935 Descending FlightAware ADS-B
Sat 08:59:40 AM 29.8881 -95.9120 138° Southeast 283 326 8,300 -1,935 Descending FlightAware ADS-B
Sat 08:59:55 AM 29.8735 -95.8968 138° Southeast 282 325 7,800 -1,920 Descending FlightAware ADS-B
Sat 09:00:05 AM 29.8640 -95.8868 138° Southeast 282 325 7,500 -1,920 Descending FlightAware ADS-B
Sat 09:00:20 AM 29.8495 -95.8717 138° Southeast 281 323 7,000 -2,000 Descending FlightAware ADS-B
Sat 09:00:35 AM 29.8347 -95.8563 138° Southeast 280 322 6,500 -2,000 Descending FlightAware ADS-B
Sat 09:00:50 AM 29.8200 -95.8409 138° Southeast 277 319 6,000 -1,355 Descending FlightAware ADS-B
Sat 09:01:06 AM 29.8054 -95.8257 138° Southeast 275 316 5,800 -375 Descending FlightAware ADS-B
Sat 09:01:22 AM 29.7900 -95.8097 138° Southeast 274 315 5,800  Level FlightAware ADS-B
Sat 09:01:37 AM 29.7755 -95.7945 138° Southeast 278 320 5,800  Level FlightAware ADS-B
Sat 09:01:52 AM 29.7611 -95.7795 138° Southeast 281 323 5,800  Level FlightAware ADS-B
Sat 09:02:08 AM 29.7460 -95.7638 138° Southeast 284 327 5,800  Level FlightAware ADS-B
Sat 09:02:26 AM 29.7285 -95.7455 138° Southeast 285 328 5,800  Level FlightAware ADS-B
Sat 09:02:28 AM 29.7245 -95.7415 139° Southeast 285 328 5,800  Level FlightAware ADS-B
Sat 09:02:42 AM 29.7124 -95.7288 138° Southeast 287 330 5,800  Level FlightAware ADS-B
Sat 09:02:57 AM 29.6971 -95.7130 138° Southeast 288 331 5,800  Level FlightAware ADS-B
Sat 09:03:14 AM 29.6810 -95.6962 138° Southeast 289 333 5,800  Level FlightAware ADS-B
Sat 09:03:29 AM 29.6655 -95.6802 138° Southeast 290 334 5,800  Level FlightAware ADS-B
Sat 09:03:45 AM 29.6499 -95.6640 138° Southeast 290 334 5,800  Level FlightAware ADS-B
Sat 09:04:00 AM 29.6348 -95.6484 138° Southeast 292 336 5,800 -1,143 Level FlightAware ADS-B
Sat 09:04:27 AM 29.6087 -95.6212 138° Southeast 290 334 5,000 -1,857 Descending FlightAware ADS-B
Sat 09:04:42 AM 29.5947 -95.6067 138° Southeast 263 303 4,500 -1,946 Descending FlightAware ADS-B
Sat 09:05:04 AM 29.5768 -95.5816 129° Southeast 256 295 3,800 -1,680 Descending FlightAware ADS-B
Sat 09:05:07 AM 29.5759 -95.5766 102° East 257 296 3,800 -1,200 Level FlightAware ADS-B
Sat 09:05:24 AM 29.5787 -95.5528 82° East 273 314 3,400 -1,286 Descending FlightAware ADS-B
Sat 09:05:35 AM 29.5819 -95.5416 72° East 274 315 3,200 -1,579 Descending FlightAware ADS-B
Sat 09:05:43 AM 29.5861 -95.5264 72° East 269 310 2,900 -1,200 Descending FlightAware ADS-B
Sat 09:05:50 AM 29.5877 -95.5207 72° East 267 307 2,900 -273 Level FlightAware ADS-B
Sat 09:06:05 AM 29.5932 -95.5008 72° East 254 292 2,800 -261 Descending FlightAware ADS-B
Sat 09:06:13 AM 29.5969 -95.4874 72° East 248 285 2,800  Level FlightAware ADS-B
Sat 09:06:19 AM 29.5979 -95.4830 75° East 247 284 2,800  Level FlightAware ADS-B
Sat 09:06:23 AM 29.5988 -95.4751 83° East 243 280 2,800  Level FlightAware ADS-B
Sat 09:06:37 AM 29.5987 -95.4580 90° East 223 257 2,800  Level FlightAware ADS-B
Sat 09:06:54 AM 29.5959 -95.4382 99° East 207 238 2,800  Level FlightAware ADS-B
Sat 09:07:12 AM 29.5936 -95.4220 99° East 204 235 2,800  Level FlightAware ADS-B
Sat 09:07:14 AM 29.5929 -95.4172 100° East 187 215 2,800  Level FlightAware ADS-B
Sat 09:07:27 AM 29.5915 -95.4076 99° East 175 201 2,800 -273 Level FlightAware ADS-B
Sat 09:07:36 AM 29.5904 -95.3996 99° East 168 193 2,700 -947 Descending FlightAware ADS-B
Sat 09:07:46 AM 29.5890 -95.3906 100° East 167 192 2,500 -1,059 Descending FlightAware ADS-B
Sat 09:07:53 AM 29.5877 -95.3827 100° East 155 178 2,400 -800 Descending FlightAware ADS-B
Sat 09:08:01 AM 29.5870 -95.3782 101° East 148 170 2,300 -857 Descending FlightAware ADS-B
Sat 09:08:07 AM 29.5866 -95.3741 96° East 144 166 2,200 -1,385 Descending FlightAware ADS-B
Sat 09:08:14 AM 29.5862 -95.3673 94° East 139 160 2,000 -1,000 Descending FlightAware ADS-B
Sat 09:08:19 AM 29.5862 -95.3652 89° East 139 160 2,000 -1,000 Level FlightAware ADS-B
Sat 09:08:26 AM 29.5865 -95.3601 86° East 137 158 1,800 -1,636 Descending FlightAware ADS-B
Sat 09:08:30 AM 29.5870 -95.3568 80° East 136 157 1,700 -1,714 Descending FlightAware ADS-B
Sat 09:08:33 AM 29.5873 -95.3548 80° East 135 155 1,600 -1,500 Descending FlightAware ADS-B
Sat 09:08:34 AM 29.5878 -95.3525 75° East 134 154 1,600 -857 Level FlightAware ADS-B
Sat 09:08:40 AM 29.5884 -95.3505 72° East 133 153 1,500 -1,800 Descending FlightAware ADS-B
Sat 09:08:44 AM 29.5899 -95.3463 67° East 133 153 1,300 -1,714 Descending FlightAware ADS-B
Sat 09:08:47 AM 29.5901 -95.3460 60° Northeast 133 153 1,300 -857 Level FlightAware ADS-B
Sat 09:08:51 AM 29.5915 -95.3432 60° Northeast 133 153 1,200 -1,500 Descending FlightAware ADS-B
Sat 09:08:55 AM 29.5928 -95.3407 59° Northeast 133 153 1,100 -1,200 Descending FlightAware ADS-B
Sat 09:09:01 AM 29.5949 -95.3371 56° Northeast 130 150 1,000 -1,333 Descending FlightAware ADS-B
Sat 09:09:04 AM 29.5966 -95.3346 52° Northeast 124 143 900 -857 Descending FlightAware ADS-B
Sat 09:09:08 AM 29.5974 -95.3334 53° Northeast 123 142 900 -333 Level FlightAware ADS-B
Sat 09:09:22 AM 29.6022 -95.3268 50° Northeast 116 133 800 -480 Descending FlightAware ADS-B
Sat 09:09:33 AM 29.6069 -95.3212 46° Northeast 107 123 700 -400 Descending FlightAware ADS-B
Sat 09:09:37 AM 29.6078 -95.3202 46° Northeast 110 127 700 -545 Level FlightAware ADS-B
Sat 09:09:44 AM 29.6103 -95.3175 43° Northeast 105 121 600 -750 Descending FlightAware ADS-B
Sat 09:09:53 AM 29.6143 -95.3130 44° Northeast 103 119 500 -667 Descending FlightAware ADS-B
Sat 09:10:02 AM 29.6163 -95.3107 45° Northeast 100 115 400 -600 Descending FlightAware ADS-B
Sat 09:10:13 AM 29.6200 -95.3064 45° Northeast 98 113 300 -273 Descending FlightAware ADS-B
Sat 09:10:24 AM 29.6235 -95.3025 44° Northeast 98 113 300 -353 Level FlightAware ADS-B
Sat 09:10:47 AM 29.6312 -95.2940 44° Northeast 100 115 100 -185 Descending FlightAware ADS-B
Sat 09:11:29 AM 29.6411 -95.2839 44° Northeast 108 124 100 153 Level Houston Center
Sat 09:13:00 AM 29.6454 -95.2789 69° East  Level Estimated
Sat 10:05:42 AM 29.7938 -95.3068 69° East 265 305 8,500  Level FlightAware ADS-B
Sat 10:05:46 AM 29.8002 -95.3074 355° North 268 308 8,900 3,750 Climbing FlightAware ADS-B
Sat 10:05:58 AM 29.8125 -95.3086 355° North 271 312 9,500 3,600 Climbing FlightAware ADS-B
Sat 10:06:16 AM 29.8383 -95.3109 355° North 280 322 10,700 3,484 Climbing FlightAware ADS-B
Sat 10:06:29 AM 29.8526 -95.3123 355° North 284 327 11,300 3,000 Climbing FlightAware ADS-B
Sat 10:06:38 AM 29.8653 -95.3133 356° North 288 331 11,800 3,500 Climbing FlightAware ADS-B
Sat 10:06:41 AM 29.8692 -95.3131 North 290 334 12,000 4,000 Climbing FlightAware ADS-B
Sat 10:06:47 AM 29.8772 -95.3116 North 293 337 12,400 4,154 Climbing FlightAware ADS-B
Sat 10:06:54 AM 29.8866 -95.3076 20° North 295 339 12,900 4,667 Climbing FlightAware ADS-B
Sat 10:06:56 AM 29.8918 -95.3045 28° Northeast 297 342 13,100 2,571 Climbing FlightAware ADS-B
Sat 10:07:01 AM 29.8944 -95.3028 28° Northeast 298 343 13,200 3,000 Climbing FlightAware ADS-B
Sat 10:07:36 AM 29.9386 -95.2768 27° Northeast 310 357 15,100 3,138 Climbing FlightAware ADS-B
Sat 10:08:06 AM 29.9787 -95.2538 26° Northeast 322 371 16,600 3,000 Climbing FlightAware ADS-B
Sat 10:08:38 AM 30.0217 -95.2290 27° Northeast 330 380 18,200 2,952 Climbing FlightAware ADS-B
Sat 10:09:09 AM 30.0643 -95.2042 27° Northeast 337 388 19,700 2,769 Climbing FlightAware ADS-B
Sat 10:09:17 AM 30.0749 -95.1974 29° Northeast 340 391 20,000 2,571 Climbing FlightAware ADS-B
Sat 10:09:23 AM 30.0835 -95.1896 38° Northeast 343 395 20,300 2,432 Climbing FlightAware ADS-B
Sat 10:09:54 AM 30.1179 -95.1491 46° Northeast 354 407 21,500 2,323 Climbing FlightAware ADS-B
Sat 10:10:25 AM 30.1550 -95.1070 44° Northeast 359 413 22,700 2,226 Climbing FlightAware ADS-B
Sat 10:10:56 AM 30.1917 -95.0653 44° Northeast 366 421 23,800 2,262 Climbing FlightAware ADS-B
Sat 10:11:26 AM 30.2287 -95.0233 44° Northeast 371 427 25,000 2,200 Climbing FlightAware ADS-B
Sat 10:11:56 AM 30.2659 -94.9808 45° Northeast 377 434 26,000 1,672 Climbing FlightAware ADS-B
Sat 10:12:27 AM 30.3041 -94.9372 45° Northeast 388 447 26,700 1,475 Climbing FlightAware ADS-B
Sat 10:12:57 AM 30.3430 -94.8927 45° Northeast 396 456 27,500 1,600 Climbing FlightAware ADS-B
Sat 10:13:27 AM 30.3837 -94.8462 45° Northeast 405 466 28,300 1,672 Climbing FlightAware ADS-B
Sat 10:13:58 AM 30.4243 -94.7996 45° Northeast 409 471 29,200 1,239 Climbing FlightAware ADS-B
Sat 10:14:59 AM 30.5102 -94.7013 45° Northeast 436 502 30,200 1,451 Climbing FlightAware ADS-B
Sat 10:15:29 AM 30.5531 -94.6517 45° Northeast 430 495 31,400 2,164 Climbing FlightAware ADS-B
Sat 10:16:00 AM 30.5961 -94.6021 45° Northeast 431 496 32,400 1,839 Climbing FlightAware ADS-B
Sat 10:16:31 AM 30.6397 -94.5518 45° Northeast 433 498 33,300 1,770 Climbing FlightAware ADS-B
Sat 10:17:01 AM 30.6823 -94.5025 45° Northeast 433 498 34,200 1,742 Climbing FlightAware ADS-B
Sat 10:17:33 AM 30.7280 -94.4497 45° Northeast 433 498 35,100 1,810 Climbing FlightAware ADS-B
Sat 10:18:04 AM 30.7720 -94.3988 45° Northeast 431 496 36,100 1,869 Climbing FlightAware ADS-B
Sat 10:18:34 AM 30.8142 -94.3498 45° Northeast 429 494 37,000 1,900 Climbing FlightAware ADS-B
Sat 10:19:04 AM 30.8567 -94.3005 45° Northeast 426 490 38,000 1,574 Climbing FlightAware ADS-B
Sat 10:19:35 AM 30.9001 -94.2501 45° Northeast 433 498 38,600 968 Climbing FlightAware ADS-B
Sat 10:20:06 AM 30.9440 -94.1991 45° Northeast 443 510 39,000 387 Climbing FlightAware ADS-B
Sat 10:20:37 AM 30.9902 -94.1453 45° Northeast 463 533 39,000  Level FlightAware ADS-B
Sat 10:21:07 AM 31.0369 -94.0907 45° Northeast 474 545 39,000  Level FlightAware ADS-B
Sat 10:21:37 AM 31.0840 -94.0357 45° Northeast 479 551 39,000  Level FlightAware ADS-B
Sat 10:22:11 AM 31.1378 -93.9726 45° Northeast 488 562 39,000  Level FlightAware ADS-B
Sat 10:22:45 AM 31.1918 -93.9090 45° Northeast 495 570 39,000  Level FlightAware ADS-B
Sat 10:23:17 AM 31.2426 -93.8492 45° Northeast 499 574 39,000  Level FlightAware ADS-B
Sat 10:23:50 AM 31.2964 -93.7859 45° Northeast 501 577 39,000  Level FlightAware ADS-B
Sat 10:24:28 AM 31.3597 -93.7112 45° Northeast 501 577 39,000  Level FlightAware ADS-B

Login

Don't have an account? Register now (free) for customized features, flight alerts, and more!